createdAt,value
2023-05-20T00:00:49.081Z,17.85
2023-05-20T00:03:16.790Z,15.30
2023-05-20T00:05:43.870Z,19.63
2023-05-20T00:08:11.177Z,13.15
2023-05-20T00:10:38.257Z,14.77
2023-05-20T00:13:05.036Z,14.50
2023-05-20T00:15:32.256Z,12.18
2023-05-20T00:18:00.847Z,11.07
2023-05-20T00:20:27.625Z,13.20
2023-05-20T00:22:54.330Z,14.50
2023-05-20T00:25:21.264Z,19.00
2023-05-20T00:27:48.060Z,13.98
2023-05-20T00:30:14.867Z,10.77
2023-05-20T00:32:41.642Z,19.40
2023-05-20T00:35:09.316Z,14.13
2023-05-20T00:37:36.080Z,13.85
2023-05-20T00:40:03.255Z,18.98
2023-05-20T00:42:29.995Z,12.18
2023-05-20T00:44:56.895Z,17.42
2023-05-20T00:47:32.927Z,13.80
2023-05-20T00:49:59.740Z,9.40
2023-05-20T00:52:26.506Z,10.82
2023-05-20T00:54:53.221Z,9.63
2023-05-20T00:57:20.115Z,10.70
2023-05-20T00:59:46.865Z,14.35
2023-05-20T01:02:13.566Z,14.23
2023-05-20T01:04:40.348Z,11.45
2023-05-20T01:07:07.332Z,12.98
2023-05-20T01:09:34.049Z,12.40
2023-05-20T01:12:11.985Z,12.52
2023-05-20T01:14:52.152Z,14.52
2023-05-20T01:17:20.942Z,14.32
2023-05-20T01:19:48.649Z,8.90
2023-05-20T01:22:15.497Z,12.90
2023-05-20T01:24:43.752Z,18.95
2023-05-20T01:27:11.445Z,17.75
2023-05-20T01:29:38.249Z,14.18
2023-05-20T01:32:12.530Z,10.38
2023-05-20T01:34:39.417Z,12.50
2023-05-20T01:37:06.525Z,12.40
2023-05-20T01:39:34.330Z,11.02
2023-05-20T01:42:02.113Z,10.90
2023-05-20T01:44:28.811Z,17.48
2023-05-20T01:46:55.609Z,11.02
2023-05-20T01:49:22.375Z,13.55
2023-05-20T01:51:49.100Z,10.50
2023-05-20T01:54:15.894Z,11.90
2023-05-20T01:56:42.590Z,13.38
2023-05-20T01:59:09.554Z,17.77
2023-05-20T02:01:36.328Z,17.73
2023-05-20T02:04:03.021Z,9.60
2023-05-20T02:06:29.734Z,9.13
2023-05-20T02:08:56.529Z,14.38
2023-05-20T02:11:23.333Z,16.40
2023-05-20T02:13:51.181Z,17.80
2023-05-20T02:16:18.226Z,13.88
2023-05-20T02:18:45.064Z,9.65
2023-05-20T02:21:11.794Z,12.50
2023-05-20T02:23:38.522Z,14.35
2023-05-20T02:26:05.472Z,11.77
2023-05-20T02:28:32.223Z,17.30
2023-05-20T02:30:59.000Z,17.98
2023-05-20T02:33:29.147Z,9.63
2023-05-20T02:35:56.130Z,13.95
2023-05-20T02:38:22.831Z,14.48
2023-05-20T02:40:49.570Z,12.60
2023-05-20T02:43:16.289Z,12.45
2023-05-20T02:45:43.423Z,14.35
2023-05-20T02:48:10.947Z,11.10
2023-05-20T02:50:41.029Z,12.30
2023-05-20T02:53:07.754Z,17.23
2023-05-20T02:55:35.965Z,9.93
2023-05-20T02:58:02.961Z,12.00
2023-05-20T03:00:31.362Z,9.32
2023-05-20T03:03:01.107Z,7.93
2023-05-20T03:05:28.073Z,12.38
2023-05-20T03:07:55.341Z,10.27
2023-05-20T03:10:22.244Z,23.83
2023-05-20T03:12:48.996Z,16.77
2023-05-20T03:15:15.956Z,18.63
2023-05-20T03:17:42.723Z,15.32
2023-05-20T03:20:12.373Z,12.77
2023-05-20T03:22:39.145Z,16.33
2023-05-20T03:25:06.270Z,11.48
2023-05-20T03:27:34.383Z,12.13
2023-05-20T03:30:01.610Z,14.07
2023-05-20T03:32:28.372Z,19.15
2023-05-20T03:34:55.074Z,14.45
2023-05-20T03:37:21.837Z,19.83
2023-05-20T03:39:48.615Z,13.15
2023-05-20T03:42:15.384Z,13.52
2023-05-20T03:44:42.173Z,13.48
2023-05-20T03:47:08.890Z,14.93
2023-05-20T03:49:35.906Z,11.57
2023-05-20T03:52:03.905Z,16.25
2023-05-20T03:54:31.606Z,10.77
2023-05-20T03:56:58.380Z,14.23
2023-05-20T03:59:25.174Z,11.10
2023-05-20T04:01:51.953Z,30.52
2023-05-20T04:04:18.814Z,23.85
2023-05-20T04:06:46.254Z,17.75
2023-05-20T04:09:13.641Z,15.80
2023-05-20T04:11:40.426Z,11.68
2023-05-20T04:14:07.378Z,15.30
2023-05-20T04:16:34.243Z,23.27
2023-05-20T04:19:02.761Z,14.10
2023-05-20T04:21:29.632Z,15.43
2023-05-20T04:23:56.348Z,14.60
2023-05-20T04:26:23.083Z,14.48
2023-05-20T04:28:49.975Z,18.90
2023-05-20T04:31:17.103Z,17.05
2023-05-20T04:33:44.571Z,12.30
2023-05-20T04:36:15.320Z,22.25
2023-05-20T04:38:44.412Z,14.48
2023-05-20T04:41:11.389Z,18.35
2023-05-20T04:43:40.052Z,17.50
2023-05-20T04:46:07.061Z,20.15
2023-05-20T04:48:33.978Z,13.25
2023-05-20T04:51:00.677Z,17.65
2023-05-20T04:53:27.406Z,14.20
2023-05-20T04:55:57.354Z,13.48
2023-05-20T04:58:24.998Z,16.33
2023-05-20T05:00:52.110Z,22.13
2023-05-20T05:03:18.887Z,29.08
2023-05-20T05:05:45.635Z,17.25
2023-05-20T05:08:12.378Z,16.58
2023-05-20T05:10:39.105Z,17.27
2023-05-20T05:13:05.910Z,11.63
2023-05-20T05:15:32.806Z,19.25
2023-05-20T05:17:59.834Z,14.00
2023-05-20T05:20:26.640Z,15.63
2023-05-20T05:22:53.402Z,16.10
2023-05-20T05:25:20.178Z,19.25
2023-05-20T05:27:49.263Z,16.63
2023-05-20T05:30:16.278Z,16.95
2023-05-20T05:32:43.070Z,16.73
2023-05-20T05:35:10.101Z,17.67
2023-05-20T05:37:36.883Z,14.68
2023-05-20T05:40:03.798Z,17.95
2023-05-20T05:42:30.557Z,27.38
2023-05-20T05:44:57.414Z,15.90
2023-05-20T05:47:24.371Z,20.02
2023-05-20T05:49:51.805Z,20.95
2023-05-20T05:52:18.527Z,15.43
2023-05-20T05:54:45.228Z,17.20
2023-05-20T05:57:12.049Z,26.55
2023-05-20T05:59:38.814Z,18.98
2023-05-20T06:02:05.671Z,21.88
2023-05-20T06:04:32.456Z,26.08
2023-05-20T06:06:59.223Z,21.10
2023-05-20T06:09:25.948Z,22.25
2023-05-20T06:11:52.657Z,16.17
2023-05-20T06:14:19.430Z,26.92
2023-05-20T06:16:46.227Z,13.20
2023-05-20T06:19:13.182Z,16.27
2023-05-20T06:21:39.962Z,24.70
2023-05-20T06:24:06.822Z,16.33
2023-05-20T06:26:33.559Z,23.73
2023-05-20T06:29:00.458Z,22.40
2023-05-20T06:31:27.427Z,16.73
2023-05-20T06:33:54.367Z,21.95
2023-05-20T06:36:21.202Z,22.10
2023-05-20T06:38:47.944Z,18.25
2023-05-20T06:41:14.637Z,16.90
2023-05-20T06:43:41.404Z,17.55
2023-05-20T06:46:08.194Z,22.00
2023-05-20T06:48:35.150Z,18.25
2023-05-20T06:51:01.905Z,15.48
2023-05-20T06:53:28.670Z,16.38
2023-05-20T06:55:58.208Z,22.45
2023-05-20T06:58:25.170Z,24.17
2023-05-20T07:00:51.918Z,19.42
2023-05-20T07:03:18.841Z,17.63
2023-05-20T07:05:45.710Z,15.35
2023-05-20T07:08:12.496Z,18.50
2023-05-20T07:10:39.257Z,24.95
2023-05-20T07:13:06.034Z,19.40
2023-05-20T07:15:33.105Z,21.13
2023-05-20T07:18:00.204Z,16.33
2023-05-20T07:20:27.065Z,14.18
2023-05-20T07:22:53.800Z,14.68
2023-05-20T07:25:20.595Z,15.77
2023-05-20T07:27:47.517Z,22.10
2023-05-20T07:30:14.311Z,20.20
2023-05-20T07:32:41.236Z,17.05
2023-05-20T07:35:08.546Z,16.42
2023-05-20T07:37:35.516Z,17.05
2023-05-20T07:40:02.349Z,20.75
2023-05-20T07:42:29.337Z,23.92
2023-05-20T07:44:56.396Z,13.75
2023-05-20T07:47:23.080Z,15.77
2023-05-20T07:49:49.904Z,28.42
2023-05-20T07:52:16.825Z,20.73
2023-05-20T07:54:43.593Z,14.77
2023-05-20T07:57:10.384Z,19.15
2023-05-20T07:59:37.151Z,17.45
2023-05-20T08:02:04.036Z,16.45
2023-05-20T08:04:30.924Z,18.55
2023-05-20T08:06:57.766Z,14.43
2023-05-20T08:09:24.523Z,19.42
2023-05-20T08:11:51.277Z,20.17
2023-05-20T08:14:17.986Z,19.67
2023-05-20T08:16:44.913Z,22.75
2023-05-20T08:19:11.919Z,21.00
2023-05-20T08:21:39.160Z,16.83
2023-05-20T08:24:06.438Z,14.43
2023-05-20T08:26:33.179Z,20.20
2023-05-20T08:28:59.955Z,15.15
2023-05-20T08:31:26.849Z,22.35
2023-05-20T08:33:53.604Z,23.92
2023-05-20T08:36:20.630Z,14.68
2023-05-20T08:38:47.700Z,13.02
2023-05-20T08:41:14.549Z,14.30
2023-05-20T08:43:41.305Z,20.20
2023-05-20T08:46:08.533Z,15.15
2023-05-20T08:48:35.317Z,17.33
2023-05-20T08:51:03.285Z,15.35
2023-05-20T08:53:30.166Z,11.40
2023-05-20T08:56:01.388Z,13.48
2023-05-20T08:58:31.344Z,13.88
2023-05-20T09:00:58.955Z,11.48
2023-05-20T09:03:25.837Z,9.50
2023-05-20T09:05:53.484Z,24.67
2023-05-20T09:08:20.776Z,13.57
2023-05-20T09:10:47.744Z,19.17
2023-05-20T09:13:14.474Z,16.50
2023-05-20T09:15:41.419Z,19.40
2023-05-20T09:18:09.144Z,17.40
2023-05-20T09:20:37.430Z,12.95
2023-05-20T09:23:06.356Z,17.02
2023-05-20T09:25:33.782Z,17.27
2023-05-20T09:28:00.993Z,17.55
2023-05-20T09:30:27.807Z,17.67
2023-05-20T09:33:00.152Z,21.45
2023-05-20T09:35:28.060Z,15.80
2023-05-20T09:37:56.140Z,14.65
2023-05-20T09:40:29.132Z,20.75
2023-05-20T09:43:03.577Z,12.50
2023-05-20T09:45:30.544Z,15.75
2023-05-20T09:47:58.171Z,16.00
2023-05-20T09:50:25.384Z,14.75
2023-05-20T09:52:53.373Z,11.27
2023-05-20T09:55:22.844Z,15.02
2023-05-20T09:57:49.609Z,11.25
2023-05-20T10:00:20.121Z,8.65
2023-05-20T10:02:48.532Z,14.13
2023-05-20T10:05:24.727Z,11.93
2023-05-20T10:08:16.025Z,15.43
2023-05-20T10:11:08.286Z,13.02
2023-05-20T10:14:02.910Z,11.23
2023-05-20T10:16:34.730Z,13.18
2023-05-20T10:19:25.920Z,8.73
2023-05-20T10:22:03.521Z,13.98
2023-05-20T10:24:43.097Z,10.10
2023-05-20T10:27:17.294Z,12.50
2023-05-20T10:29:55.252Z,13.77
2023-05-20T10:32:29.057Z,9.95
2023-05-20T10:35:09.323Z,13.77
2023-05-20T10:37:43.942Z,11.93
2023-05-20T10:40:14.277Z,16.92
2023-05-20T10:42:41.745Z,10.68
2023-05-20T10:45:08.835Z,16.33
2023-05-20T10:47:36.208Z,10.98
2023-05-20T10:50:04.865Z,14.95
2023-05-20T10:52:37.915Z,13.02
2023-05-20T10:55:05.219Z,8.65
2023-05-20T10:57:34.704Z,7.32
2023-05-20T11:00:02.113Z,13.13
2023-05-20T11:02:29.285Z,11.55
2023-05-20T11:04:59.252Z,9.63
2023-05-20T11:07:27.780Z,7.40
2023-05-20T11:09:58.459Z,11.15
2023-05-20T11:12:26.362Z,17.88
2023-05-20T11:14:53.374Z,9.45
2023-05-20T11:17:20.336Z,12.57
2023-05-20T11:19:47.955Z,12.50
2023-05-20T11:22:14.742Z,9.07
2023-05-20T11:24:41.634Z,12.70
2023-05-20T11:27:08.447Z,7.93
2023-05-20T11:29:35.249Z,17.58
2023-05-20T11:32:02.245Z,12.00
2023-05-20T11:34:39.115Z,10.52
2023-05-20T11:37:10.433Z,9.32
2023-05-20T11:39:38.244Z,10.75
2023-05-20T11:42:06.316Z,10.85
2023-05-20T11:44:33.351Z,10.60
2023-05-20T11:47:01.406Z,11.65
2023-05-20T11:49:28.852Z,11.32
2023-05-20T11:51:56.500Z,14.38
2023-05-20T11:54:24.347Z,11.77
2023-05-20T11:56:51.650Z,10.55
2023-05-20T11:59:18.444Z,7.40
2023-05-20T12:01:45.679Z,9.32
2023-05-20T12:04:16.325Z,11.70
2023-05-20T12:06:44.072Z,9.65
2023-05-20T12:09:13.769Z,8.23
2023-05-20T12:11:41.735Z,7.70
2023-05-20T12:14:08.978Z,7.70
2023-05-20T12:16:36.367Z,6.82
2023-05-20T12:19:03.561Z,9.90
2023-05-20T12:21:31.418Z,8.20
2023-05-20T12:23:59.564Z,13.00
2023-05-20T12:26:27.395Z,10.32
2023-05-20T12:28:54.609Z,8.75
2023-05-20T12:31:21.535Z,5.00
2023-05-20T12:33:48.334Z,10.95
2023-05-20T12:36:15.375Z,10.95
2023-05-20T12:38:42.167Z,6.15
2023-05-20T12:41:08.888Z,9.43
2023-05-20T12:43:37.085Z,19.92
2023-05-20T12:46:04.333Z,5.50
2023-05-20T12:48:31.196Z,13.10
2023-05-20T12:50:57.983Z,12.82
2023-05-20T12:53:24.688Z,10.18
2023-05-20T12:55:51.482Z,10.88
2023-05-20T12:58:18.200Z,8.68
2023-05-20T13:00:44.944Z,13.10
2023-05-20T13:03:11.821Z,9.00
2023-05-20T13:05:38.691Z,9.38
2023-05-20T13:08:05.624Z,10.30
2023-05-20T13:10:33.355Z,6.80
2023-05-20T13:13:00.364Z,12.63
2023-05-20T13:15:27.255Z,9.23
2023-05-20T13:17:54.442Z,9.52
2023-05-20T13:20:21.608Z,5.97
2023-05-20T13:22:50.295Z,4.90
2023-05-20T13:25:17.650Z,8.65
2023-05-20T13:27:44.571Z,7.10
2023-05-20T13:30:11.581Z,6.35
2023-05-20T13:32:38.403Z,10.82
2023-05-20T13:35:05.686Z,16.40
2023-05-20T13:37:32.417Z,8.45
2023-05-20T13:39:59.174Z,7.80
2023-05-20T13:42:26.017Z,9.98
2023-05-20T13:44:52.771Z,6.57
2023-05-20T13:47:19.752Z,5.88
2023-05-20T13:49:46.513Z,8.27
2023-05-20T13:52:13.344Z,8.13
2023-05-20T13:54:40.564Z,9.65
2023-05-20T13:57:08.099Z,7.68
2023-05-20T13:59:35.237Z,6.13
2023-05-20T14:02:02.615Z,6.78
2023-05-20T14:04:31.224Z,9.55
2023-05-20T14:06:59.287Z,5.35
2023-05-20T14:09:26.501Z,8.30
2023-05-20T14:11:53.255Z,8.02
2023-05-20T14:14:20.012Z,12.30
2023-05-20T14:16:47.089Z,7.95
2023-05-20T14:19:13.852Z,10.00
2023-05-20T14:21:40.661Z,4.60
2023-05-20T14:24:07.434Z,6.15
2023-05-20T14:26:34.471Z,6.03
2023-05-20T14:29:01.536Z,9.23
2023-05-20T14:31:28.389Z,9.25
2023-05-20T14:33:55.361Z,7.53
2023-05-20T14:36:22.162Z,12.15
2023-05-20T14:38:49.683Z,7.95
2023-05-20T14:41:16.683Z,9.85
2023-05-20T14:43:43.536Z,5.80
2023-05-20T14:46:10.547Z,8.43
2023-05-20T14:48:37.466Z,12.43
2023-05-20T14:51:04.367Z,9.23
2023-05-20T14:53:31.106Z,8.85
2023-05-20T14:55:57.930Z,7.03
2023-05-20T14:58:24.718Z,5.80
2023-05-20T15:00:53.252Z,5.82
2023-05-20T15:03:20.517Z,6.18
2023-05-20T15:05:47.383Z,9.65
2023-05-20T15:08:15.007Z,7.35
2023-05-20T15:10:41.734Z,6.70
2023-05-20T15:13:08.478Z,6.40
2023-05-20T15:15:35.268Z,7.85
2023-05-20T15:18:02.184Z,12.57
2023-05-20T15:20:29.080Z,7.40
2023-05-20T15:22:57.360Z,7.55
2023-05-20T15:25:25.244Z,6.20
2023-05-20T15:27:51.979Z,10.20
2023-05-20T15:30:18.722Z,6.32
2023-05-20T15:32:45.729Z,6.90
2023-05-20T15:35:12.613Z,6.80
2023-05-20T15:37:39.410Z,6.38
2023-05-20T15:40:07.255Z,9.23
2023-05-20T15:42:34.769Z,6.95
2023-05-20T15:45:01.656Z,9.10
2023-05-20T15:47:28.416Z,6.70
2023-05-20T15:49:57.392Z,8.07
2023-05-20T15:52:24.201Z,7.50
2023-05-20T15:54:51.032Z,8.38
2023-05-20T15:57:17.761Z,6.13
2023-05-20T15:59:44.565Z,6.38
2023-05-20T16:02:11.830Z,9.18
2023-05-20T16:04:38.653Z,9.13
2023-05-20T16:07:05.676Z,5.35
2023-05-20T16:09:32.440Z,5.63
2023-05-20T16:11:59.157Z,4.68
2023-05-20T16:14:25.877Z,5.63
2023-05-20T16:16:52.612Z,9.88
2023-05-20T16:19:19.383Z,4.93
2023-05-20T16:21:46.355Z,8.98
2023-05-20T16:24:13.230Z,9.90
2023-05-20T16:26:39.939Z,7.50
2023-05-20T16:29:06.683Z,8.50
2023-05-20T16:31:33.595Z,9.35
2023-05-20T16:34:00.398Z,6.18
2023-05-20T16:36:27.442Z,5.25
2023-05-20T16:38:54.162Z,8.25
2023-05-20T16:41:20.879Z,5.13
2023-05-20T16:43:47.572Z,4.75
2023-05-20T16:46:14.631Z,4.10
2023-05-20T16:48:42.676Z,5.75
2023-05-20T16:51:09.418Z,6.95
2023-05-20T16:53:36.365Z,6.03
2023-05-20T16:56:06.029Z,8.18
2023-05-20T16:58:32.765Z,9.32
2023-05-20T17:00:59.512Z,6.00
2023-05-20T17:03:26.758Z,6.70
2023-05-20T17:05:53.471Z,9.70
2023-05-20T17:08:20.212Z,12.07
2023-05-20T17:10:48.549Z,5.95
2023-05-20T17:13:15.884Z,6.85
2023-05-20T17:15:42.706Z,6.55
2023-05-20T17:18:09.683Z,6.32
2023-05-20T17:20:36.641Z,6.55
2023-05-20T17:23:03.569Z,4.28
2023-05-20T17:25:30.517Z,8.18
2023-05-20T17:27:57.253Z,10.95
2023-05-20T17:30:24.036Z,8.82
2023-05-20T17:32:53.850Z,8.38
2023-05-20T17:35:20.904Z,7.03
2023-05-20T17:37:47.721Z,6.35
2023-05-20T17:40:14.448Z,4.28
2023-05-20T17:42:41.258Z,10.55
2023-05-20T17:45:08.560Z,3.85
2023-05-20T17:47:35.314Z,3.35
2023-05-20T17:50:02.827Z,6.03
2023-05-20T17:52:29.613Z,5.80
2023-05-20T17:54:56.507Z,5.40
2023-05-20T17:57:23.225Z,3.50
2023-05-20T17:59:50.811Z,11.50
2023-05-20T18:02:17.700Z,6.57
2023-05-20T18:04:44.393Z,5.75
2023-05-20T18:07:13.042Z,4.85
2023-05-20T18:09:45.951Z,3.00
2023-05-20T18:12:12.659Z,4.20
2023-05-20T18:14:39.370Z,4.43
2023-05-20T18:17:06.160Z,8.15
2023-05-20T18:19:33.891Z,8.68
2023-05-20T18:22:02.598Z,6.15
2023-05-20T18:24:29.648Z,7.05
2023-05-20T18:26:56.731Z,5.85
2023-05-20T18:29:24.409Z,5.32
2023-05-20T18:31:51.279Z,3.58
2023-05-20T18:34:18.134Z,5.93
2023-05-20T18:36:45.020Z,4.97
2023-05-20T18:39:14.143Z,10.55
2023-05-20T18:44:12.531Z,3.45
2023-05-20T18:46:39.260Z,2.50
2023-05-20T18:49:06.188Z,4.22
2023-05-20T18:51:33.704Z,4.53
2023-05-20T18:54:00.570Z,3.90
2023-05-20T18:56:27.482Z,2.33
2023-05-20T18:58:54.201Z,6.55
2023-05-20T19:01:21.347Z,4.40
2023-05-20T19:03:48.091Z,3.92
2023-05-20T19:06:16.484Z,7.57
2023-05-20T19:08:43.765Z,5.47
2023-05-20T19:11:11.047Z,4.50
2023-05-20T19:13:41.007Z,6.10
2023-05-20T19:16:07.867Z,3.08
2023-05-20T19:18:34.562Z,3.92
2023-05-20T19:21:01.513Z,4.18
2023-05-20T19:23:28.471Z,5.35
2023-05-20T19:25:55.302Z,5.03
2023-05-20T19:28:22.095Z,4.75
2023-05-20T19:30:50.521Z,6.15
2023-05-20T19:33:17.497Z,6.00
2023-05-20T19:35:44.280Z,9.65
2023-05-20T19:38:11.059Z,5.10
2023-05-20T19:40:37.921Z,7.93
2023-05-20T19:43:04.858Z,3.72
2023-05-20T19:45:32.197Z,6.32
2023-05-20T19:48:01.952Z,2.90
2023-05-20T19:50:28.717Z,5.15
2023-05-20T19:52:55.449Z,4.80
2023-05-20T19:55:22.220Z,6.22
2023-05-20T19:57:53.277Z,7.30
2023-05-20T20:00:21.279Z,5.32
2023-05-20T20:02:48.647Z,5.25
2023-05-20T20:05:15.755Z,6.07
2023-05-20T20:07:42.561Z,4.80
2023-05-20T20:10:10.410Z,6.03
2023-05-20T20:12:38.467Z,5.53
2023-05-20T20:15:05.583Z,7.07
2023-05-20T20:17:33.911Z,9.60
2023-05-20T20:20:01.085Z,6.57
2023-05-20T20:22:28.131Z,8.85
2023-05-20T20:24:55.248Z,5.38
2023-05-20T20:27:23.822Z,3.97
2023-05-20T20:29:51.276Z,5.93
2023-05-20T20:32:18.441Z,5.25
2023-05-20T20:34:45.990Z,6.13
2023-05-20T20:37:14.971Z,4.32
2023-05-20T20:39:42.229Z,5.45
2023-05-20T20:42:09.063Z,5.15
2023-05-20T20:44:35.890Z,8.32
2023-05-20T20:47:04.468Z,8.95
2023-05-20T20:49:32.143Z,8.18
2023-05-20T20:51:59.080Z,5.93
2023-05-20T20:54:26.600Z,10.32
2023-05-20T20:56:56.445Z,5.43
2023-05-20T20:59:26.287Z,4.60
2023-05-20T21:01:53.508Z,5.35
2023-05-20T21:04:20.801Z,9.20
2023-05-20T21:06:47.680Z,5.25
2023-05-20T21:09:14.827Z,5.50
2023-05-20T21:11:45.947Z,4.78
2023-05-20T21:14:13.083Z,9.38
2023-05-20T21:16:40.318Z,8.18
2023-05-20T21:19:07.186Z,4.15
2023-05-20T21:21:34.096Z,10.52
2023-05-20T21:24:00.857Z,5.40
2023-05-20T21:26:27.667Z,5.55
2023-05-20T21:28:54.409Z,5.82
2023-05-20T21:31:21.239Z,6.45
2023-05-20T21:33:48.001Z,9.68
2023-05-20T21:36:14.936Z,6.43
2023-05-20T21:38:41.977Z,4.10
2023-05-20T21:41:08.885Z,8.32
2023-05-20T21:43:37.106Z,7.63
2023-05-20T21:46:04.068Z,7.35
2023-05-20T21:48:30.907Z,8.20
2023-05-20T21:50:57.639Z,9.20
2023-05-20T21:53:24.719Z,9.38
2023-05-20T21:55:51.489Z,9.75
2023-05-20T21:58:18.422Z,4.80
2023-05-20T22:00:45.450Z,3.55
2023-05-20T22:03:12.978Z,7.03
2023-05-20T22:05:40.890Z,7.22
2023-05-20T22:08:07.778Z,8.75
2023-05-20T22:10:36.465Z,3.15
2023-05-20T22:13:03.412Z,3.53
2023-05-20T22:15:30.561Z,3.97
2023-05-20T22:17:57.561Z,9.20
2023-05-20T22:20:25.202Z,3.22
2023-05-20T22:22:52.012Z,7.50
2023-05-20T22:25:18.781Z,5.47
2023-05-20T22:27:45.639Z,12.90
2023-05-20T22:30:12.775Z,4.93
2023-05-20T22:32:40.354Z,6.03
2023-05-20T22:35:07.556Z,7.97
2023-05-20T22:37:34.252Z,5.15
2023-05-20T22:40:01.051Z,7.15
2023-05-20T22:42:27.775Z,4.65
2023-05-20T22:44:54.466Z,3.97
2023-05-20T22:47:21.192Z,5.03
2023-05-20T22:49:47.896Z,4.78
2023-05-20T22:52:14.946Z,5.10
2023-05-20T22:54:41.634Z,12.38
2023-05-20T22:57:08.429Z,9.13
2023-05-20T22:59:36.585Z,4.65
2023-05-20T23:02:04.408Z,4.38
2023-05-20T23:04:31.245Z,9.20
2023-05-20T23:06:59.461Z,3.90
2023-05-20T23:09:26.426Z,4.97
2023-05-20T23:11:53.166Z,5.20
2023-05-20T23:14:20.115Z,4.65
2023-05-20T23:16:47.231Z,5.32
2023-05-20T23:19:14.222Z,6.13
2023-05-20T23:21:40.976Z,10.45
2023-05-20T23:24:07.783Z,3.67
2023-05-20T23:26:37.653Z,5.75
2023-05-20T23:29:05.126Z,6.00
2023-05-20T23:31:32.787Z,8.25
2023-05-20T23:33:59.798Z,3.92
2023-05-20T23:36:26.786Z,11.43
2023-05-20T23:38:53.556Z,7.13
2023-05-20T23:41:21.477Z,9.10
2023-05-20T23:43:48.511Z,5.70
2023-05-20T23:46:15.494Z,7.07
2023-05-20T23:48:44.699Z,4.10
2023-05-20T23:51:13.614Z,6.82
2023-05-20T23:53:41.454Z,6.55
2023-05-20T23:56:08.401Z,6.40
2023-05-20T23:58:35.891Z,5.57
